Terminal Aerodrome Forecast
Issued by NWS Brownsville, TX

Current Version | Previous Version | Text Only | Print | Product List | Glossary On
Versions: 1 2 3 4 5 6 7 8 9 10 11 12 13 14 15 16 17 18 19 20 21 22
000
FTUS44 KBRO 191700
TAFMFE
TAF
KMFE 191728Z 1918/2018 16012G18KT P6SM VCSH FEW030 BKN050
      TEMPO 1920/1924 6SM -TSRA BKN025CB
     FM200000 12009KT P6SM VCSH SCT040 BKN200
     FM200400 13006KT P6SM FEW060
     FM200900 15003KT P6SM SCT100 SCT200
     FM201700 13010KT P6SM SCT030=

USA.gov is the U.S. government's official web portal to all federal, state and local government web resources and services.